sensor_id;sensor_type;location;lat;lon;timestamp;P1;durP1;ratioP1;P2;durP2;ratioP2
10571;SDS011;5334;48.928;12.704;2024-02-26T00:02:20;11.07;;;10.67;;
10571;SDS011;5334;48.928;12.704;2024-02-26T00:04:46;13.73;;;13.17;;
10571;SDS011;5334;48.928;12.704;2024-02-26T00:07:11;10.67;;;10.27;;
10571;SDS011;5334;48.928;12.704;2024-02-26T00:09:37;9.93;;;9.53;;
10571;SDS011;5334;48.928;12.704;2024-02-26T00:12:03;10.73;;;10.33;;
10571;SDS011;5334;48.928;12.704;2024-02-26T00:14:29;10.90;;;10.50;;
10571;SDS011;5334;48.928;12.704;2024-02-26T00:16:55;11.87;;;11.37;;
10571;SDS011;5334;48.928;12.704;2024-02-26T00:19:21;13.00;;;12.50;;
10571;SDS011;5334;48.928;12.704;2024-02-26T00:21:47;12.80;;;12.30;;
10571;SDS011;5334;48.928;12.704;2024-02-26T00:24:12;12.03;;;11.53;;
10571;SDS011;5334;48.928;12.704;2024-02-26T00:26:38;12.13;;;11.63;;
10571;SDS011;5334;48.928;12.704;2024-02-26T00:29:04;10.87;;;10.47;;
10571;SDS011;5334;48.928;12.704;2024-02-26T00:31:30;12.00;;;11.50;;
10571;SDS011;5334;48.928;12.704;2024-02-26T00:33:56;11.23;;;10.80;;
10571;SDS011;5334;48.928;12.704;2024-02-26T00:36:21;14.93;;;14.33;;
10571;SDS011;5334;48.928;12.704;2024-02-26T00:38:47;13.63;;;13.10;;
10571;SDS011;5334;48.928;12.704;2024-02-26T00:41:20;11.50;;;11.03;;
10571;SDS011;5334;48.928;12.704;2024-02-26T00:43:46;13.10;;;12.60;;
10571;SDS011;5334;48.928;12.704;2024-02-26T00:46:12;14.80;;;14.20;;
10571;SDS011;5334;48.928;12.704;2024-02-26T00:48:37;10.67;;;10.27;;
10571;SDS011;5334;48.928;12.704;2024-02-26T00:51:03;11.53;;;11.07;;
10571;SDS011;5334;48.928;12.704;2024-02-26T00:53:33;14.63;;;14.03;;
10571;SDS011;5334;48.928;12.704;2024-02-26T00:55:58;10.13;;;9.73;;
10571;SDS011;5334;48.928;12.704;2024-02-26T00:58:24;11.40;;;10.97;;
10571;SDS011;5334;48.928;12.704;2024-02-26T01:00:51;11.67;;;11.17;;
10571;SDS011;5334;48.928;12.704;2024-02-26T01:03:19;12.10;;;11.60;;
10571;SDS011;5334;48.928;12.704;2024-02-26T01:05:45;11.17;;;10.77;;
10571;SDS011;5334;48.928;12.704;2024-02-26T01:08:11;14.90;;;14.30;;
10571;SDS011;5334;48.928;12.704;2024-02-26T01:10:36;13.77;;;13.20;;
10571;SDS011;5334;48.928;12.704;2024-02-26T01:13:02;16.97;;;16.27;;
10571;SDS011;5334;48.928;12.704;2024-02-26T01:15:28;13.67;;;13.10;;
10571;SDS011;5334;48.928;12.704;2024-02-26T01:17:53;11.77;;;11.27;;
10571;SDS011;5334;48.928;12.704;2024-02-26T01:20:19;10.60;;;10.20;;
10571;SDS011;5334;48.928;12.704;2024-02-26T01:22:45;11.70;;;11.20;;
10571;SDS011;5334;48.928;12.704;2024-02-26T01:25:11;11.80;;;11.30;;
10571;SDS011;5334;48.928;12.704;2024-02-26T01:27:37;11.17;;;10.77;;
10571;SDS011;5334;48.928;12.704;2024-02-26T01:30:03;10.10;;;9.70;;
10571;SDS011;5334;48.928;12.704;2024-02-26T01:32:30;11.40;;;10.93;;
10571;SDS011;5334;48.928;12.704;2024-02-26T01:34:57;12.70;;;12.20;;
10571;SDS011;5334;48.928;12.704;2024-02-26T01:37:23;12.00;;;11.50;;
10571;SDS011;5334;48.928;12.704;2024-02-26T01:39:49;13.30;;;12.80;;
10571;SDS011;5334;48.928;12.704;2024-02-26T01:42:15;10.87;;;10.47;;
10571;SDS011;5334;48.928;12.704;2024-02-26T01:44:41;10.00;;;9.60;;
10571;SDS011;5334;48.928;12.704;2024-02-26T01:47:07;10.10;;;9.70;;
10571;SDS011;5334;48.928;12.704;2024-02-26T01:49:36;10.00;;;9.60;;
10571;SDS011;5334;48.928;12.704;2024-02-26T01:52:04;9.83;;;9.43;;
10571;SDS011;5334;48.928;12.704;2024-02-26T01:54:33;8.90;;;8.60;;
10571;SDS011;5334;48.928;12.704;2024-02-26T01:57:03;8.97;;;8.67;;
10571;SDS011;5334;48.928;12.704;2024-02-26T01:59:31;10.73;;;10.33;;
10571;SDS011;5334;48.928;12.704;2024-02-26T02:01:58;10.70;;;10.30;;
10571;SDS011;5334;48.928;12.704;2024-02-26T02:04:27;9.53;;;9.13;;
10571;SDS011;5334;48.928;12.704;2024-02-26T02:06:53;10.23;;;9.83;;
10571;SDS011;5334;48.928;12.704;2024-02-26T02:09:19;11.17;;;10.77;;
10571;SDS011;5334;48.928;12.704;2024-02-26T02:11:45;9.83;;;9.43;;
10571;SDS011;5334;48.928;12.704;2024-02-26T02:14:13;10.23;;;9.83;;
10571;SDS011;5334;48.928;12.704;2024-02-26T02:16:39;11.70;;;11.20;;
10571;SDS011;5334;48.928;12.704;2024-02-26T02:19:05;10.67;;;10.27;;
10571;SDS011;5334;48.928;12.704;2024-02-26T02:21:30;11.07;;;10.67;;
10571;SDS011;5334;48.928;12.704;2024-02-26T02:23:56;11.07;;;10.67;;
10571;SDS011;5334;48.928;12.704;2024-02-26T02:26:21;10.73;;;10.33;;
10571;SDS011;5334;48.928;12.704;2024-02-26T02:28:47;11.23;;;10.80;;
10571;SDS011;5334;48.928;12.704;2024-02-26T02:31:14;10.90;;;10.50;;
10571;SDS011;5334;48.928;12.704;2024-02-26T02:33:41;9.87;;;9.47;;
10571;SDS011;5334;48.928;12.704;2024-02-26T02:36:07;10.73;;;10.33;;
10571;SDS011;5334;48.928;12.704;2024-02-26T02:38:35;10.53;;;10.13;;
10571;SDS011;5334;48.928;12.704;2024-02-26T02:41:01;12.03;;;11.53;;
10571;SDS011;5334;48.928;12.704;2024-02-26T02:43:27;10.67;;;10.27;;
10571;SDS011;5334;48.928;12.704;2024-02-26T02:45:53;9.97;;;9.57;;
10571;SDS011;5334;48.928;12.704;2024-02-26T02:48:19;10.27;;;9.87;;
10571;SDS011;5334;48.928;12.704;2024-02-26T02:50:44;10.17;;;9.77;;
10571;SDS011;5334;48.928;12.704;2024-02-26T02:53:10;9.90;;;9.50;;
10571;SDS011;5334;48.928;12.704;2024-02-26T02:55:36;8.77;;;8.47;;
10571;SDS011;5334;48.928;12.704;2024-02-26T02:58:01;8.87;;;8.57;;
10571;SDS011;5334;48.928;12.704;2024-02-26T03:00:27;11.47;;;11.00;;
10571;SDS011;5334;48.928;12.704;2024-02-26T03:02:53;10.50;;;10.10;;
10571;SDS011;5334;48.928;12.704;2024-02-26T03:05:18;8.87;;;8.57;;
10571;SDS011;5334;48.928;12.704;2024-02-26T03:07:44;12.37;;;11.87;;
10571;SDS011;5334;48.928;12.704;2024-02-26T03:10:10;11.80;;;11.30;;
10571;SDS011;5334;48.928;12.704;2024-02-26T03:12:35;12.67;;;12.17;;
10571;SDS011;5334;48.928;12.704;2024-02-26T03:15:01;8.60;;;8.30;;
10571;SDS011;5334;48.928;12.704;2024-02-26T03:17:30;8.77;;;8.47;;
10571;SDS011;5334;48.928;12.704;2024-02-26T03:19:55;8.70;;;8.40;;
10571;SDS011;5334;48.928;12.704;2024-02-26T03:22:21;8.73;;;8.43;;
10571;SDS011;5334;48.928;12.704;2024-02-26T03:24:47;9.47;;;9.07;;
10571;SDS011;5334;48.928;12.704;2024-02-26T03:27:13;9.83;;;9.43;;
10571;SDS011;5334;48.928;12.704;2024-02-26T03:29:39;10.47;;;10.07;;
10571;SDS011;5334;48.928;12.704;2024-02-26T03:32:05;9.90;;;9.50;;
10571;SDS011;5334;48.928;12.704;2024-02-26T03:34:33;10.77;;;10.37;;
10571;SDS011;5334;48.928;12.704;2024-02-26T03:37:04;8.70;;;8.40;;
10571;SDS011;5334;48.928;12.704;2024-02-26T03:39:30;10.47;;;10.07;;
10571;SDS011;5334;48.928;12.704;2024-02-26T03:41:55;10.97;;;10.57;;
10571;SDS011;5334;48.928;12.704;2024-02-26T03:44:21;10.00;;;9.60;;
10571;SDS011;5334;48.928;12.704;2024-02-26T03:46:47;9.60;;;9.20;;
10571;SDS011;5334;48.928;12.704;2024-02-26T03:49:12;11.40;;;10.97;;
10571;SDS011;5334;48.928;12.704;2024-02-26T03:51:38;11.83;;;11.33;;
10571;SDS011;5334;48.928;12.704;2024-02-26T03:54:04;9.07;;;8.73;;
10571;SDS011;5334;48.928;12.704;2024-02-26T03:56:29;9.13;;;8.80;;
10571;SDS011;5334;48.928;12.704;2024-02-26T03:58:55;8.63;;;8.33;;
10571;SDS011;5334;48.928;12.704;2024-02-26T04:01:21;9.40;;;9.00;;
10571;SDS011;5334;48.928;12.704;2024-02-26T04:03:47;9.30;;;8.90;;
10571;SDS011;5334;48.928;12.704;2024-02-26T04:06:13;9.77;;;9.37;;
10571;SDS011;5334;48.928;12.704;2024-02-26T04:08:44;9.37;;;8.97;;
10571;SDS011;5334;48.928;12.704;2024-02-26T04:11:10;9.27;;;8.87;;
10571;SDS011;5334;48.928;12.704;2024-02-26T04:13:36;8.20;;;7.90;;
10571;SDS011;5334;48.928;12.704;2024-02-26T04:16:05;8.97;;;8.67;;
10571;SDS011;5334;48.928;12.704;2024-02-26T04:18:31;8.93;;;8.63;;
10571;SDS011;5334;48.928;12.704;2024-02-26T04:20:57;8.40;;;8.10;;
10571;SDS011;5334;48.928;12.704;2024-02-26T04:23:23;12.30;;;11.80;;
10571;SDS011;5334;48.928;12.704;2024-02-26T04:25:49;8.27;;;7.97;;
10571;SDS011;5334;48.928;12.704;2024-02-26T04:28:15;8.20;;;7.90;;
10571;SDS011;5334;48.928;12.704;2024-02-26T04:30:41;10.30;;;9.90;;
10571;SDS011;5334;48.928;12.704;2024-02-26T04:33:06;9.00;;;8.70;;
10571;SDS011;5334;48.928;12.704;2024-02-26T04:35:32;10.80;;;10.40;;
10571;SDS011;5334;48.928;12.704;2024-02-26T04:38:00;11.80;;;11.30;;
10571;SDS011;5334;48.928;12.704;2024-02-26T04:40:26;10.33;;;9.93;;
10571;SDS011;5334;48.928;12.704;2024-02-26T04:42:52;9.00;;;8.70;;
10571;SDS011;5334;48.928;12.704;2024-02-26T04:45:17;9.50;;;9.10;;
10571;SDS011;5334;48.928;12.704;2024-02-26T04:47:43;10.20;;;9.80;;
10571;SDS011;5334;48.928;12.704;2024-02-26T04:50:09;9.37;;;8.97;;
10571;SDS011;5334;48.928;12.704;2024-02-26T04:52:34;9.83;;;9.43;;
10571;SDS011;5334;48.928;12.704;2024-02-26T04:55:01;9.63;;;9.23;;
10571;SDS011;5334;48.928;12.704;2024-02-26T04:57:27;10.40;;;10.00;;
10571;SDS011;5334;48.928;12.704;2024-02-26T04:59:53;7.93;;;7.63;;
10571;SDS011;5334;48.928;12.704;2024-02-26T05:02:18;10.00;;;9.60;;
10571;SDS011;5334;48.928;12.704;2024-02-26T05:04:44;9.60;;;9.20;;
10571;SDS011;5334;48.928;12.704;2024-02-26T05:07:10;9.27;;;8.87;;
10571;SDS011;5334;48.928;12.704;2024-02-26T05:09:37;8.93;;;8.63;;
10571;SDS011;5334;48.928;12.704;2024-02-26T05:12:03;10.43;;;10.03;;
10571;SDS011;5334;48.928;12.704;2024-02-26T05:14:29;8.23;;;7.93;;
10571;SDS011;5334;48.928;12.704;2024-02-26T05:16:54;10.57;;;10.17;;
10571;SDS011;5334;48.928;12.704;2024-02-26T05:19:21;8.97;;;8.63;;
10571;SDS011;5334;48.928;12.704;2024-02-26T05:21:46;8.10;;;7.80;;
10571;SDS011;5334;48.928;12.704;2024-02-26T05:24:14;8.73;;;8.43;;
10571;SDS011;5334;48.928;12.704;2024-02-26T05:26:42;7.60;;;7.30;;
10571;SDS011;5334;48.928;12.704;2024-02-26T05:29:08;7.80;;;7.50;;
10571;SDS011;5334;48.928;12.704;2024-02-26T05:31:34;11.07;;;10.67;;
10571;SDS011;5334;48.928;12.704;2024-02-26T05:33:59;9.03;;;8.73;;
10571;SDS011;5334;48.928;12.704;2024-02-26T05:36:25;9.07;;;8.73;;
10571;SDS011;5334;48.928;12.704;2024-02-26T05:38:53;12.60;;;12.10;;
10571;SDS011;5334;48.928;12.704;2024-02-26T05:41:19;8.43;;;8.13;;
10571;SDS011;5334;48.928;12.704;2024-02-26T05:43:51;8.43;;;8.13;;
10571;SDS011;5334;48.928;12.704;2024-02-26T05:46:17;10.67;;;10.27;;
10571;SDS011;5334;48.928;12.704;2024-02-26T05:48:44;7.43;;;7.13;;
10571;SDS011;5334;48.928;12.704;2024-02-26T05:51:10;9.50;;;9.10;;
10571;SDS011;5334;48.928;12.704;2024-02-26T05:53:36;8.37;;;8.07;;
10571;SDS011;5334;48.928;12.704;2024-02-26T05:56:02;8.20;;;7.90;;
10571;SDS011;5334;48.928;12.704;2024-02-26T05:58:28;10.60;;;10.20;;
10571;SDS011;5334;48.928;12.704;2024-02-26T06:00:54;8.27;;;7.97;;
10571;SDS011;5334;48.928;12.704;2024-02-26T06:03:20;10.40;;;10.00;;
10571;SDS011;5334;48.928;12.704;2024-02-26T06:05:46;8.70;;;8.40;;
10571;SDS011;5334;48.928;12.704;2024-02-26T06:08:11;9.77;;;9.37;;
10571;SDS011;5334;48.928;12.704;2024-02-26T06:10:37;8.43;;;8.13;;
10571;SDS011;5334;48.928;12.704;2024-02-26T06:13:04;9.67;;;9.27;;
10571;SDS011;5334;48.928;12.704;2024-02-26T06:15:30;9.07;;;8.73;;
10571;SDS011;5334;48.928;12.704;2024-02-26T06:17:56;10.10;;;9.70;;
10571;SDS011;5334;48.928;12.704;2024-02-26T06:20:22;9.00;;;8.70;;
10571;SDS011;5334;48.928;12.704;2024-02-26T06:22:48;8.80;;;8.50;;
10571;SDS011;5334;48.928;12.704;2024-02-26T06:25:13;9.80;;;9.40;;
10571;SDS011;5334;48.928;12.704;2024-02-26T06:27:39;8.37;;;8.07;;
10571;SDS011;5334;48.928;12.704;2024-02-26T06:30:05;13.83;;;13.20;;
10571;SDS011;5334;48.928;12.704;2024-02-26T06:32:31;7.97;;;7.67;;
10571;SDS011;5334;48.928;12.704;2024-02-26T06:34:57;8.63;;;8.33;;
10571;SDS011;5334;48.928;12.704;2024-02-26T06:37:22;9.90;;;9.50;;
10571;SDS011;5334;48.928;12.704;2024-02-26T06:39:48;8.17;;;7.87;;
10571;SDS011;5334;48.928;12.704;2024-02-26T06:42:14;9.33;;;8.93;;
10571;SDS011;5334;48.928;12.704;2024-02-26T06:44:39;9.20;;;8.83;;
10571;SDS011;5334;48.928;12.704;2024-02-26T06:47:05;12.90;;;12.40;;
10571;SDS011;5334;48.928;12.704;2024-02-26T06:49:31;8.60;;;8.30;;
10571;SDS011;5334;48.928;12.704;2024-02-26T06:51:56;11.10;;;10.70;;
10571;SDS011;5334;48.928;12.704;2024-02-26T06:54:22;13.23;;;12.73;;
10571;SDS011;5334;48.928;12.704;2024-02-26T06:56:48;13.90;;;13.30;;
10571;SDS011;5334;48.928;12.704;2024-02-26T06:59:14;10.67;;;10.27;;
10571;SDS011;5334;48.928;12.704;2024-02-26T07:01:41;11.10;;;10.70;;
10571;SDS011;5334;48.928;12.704;2024-02-26T07:04:07;11.70;;;11.23;;
10571;SDS011;5334;48.928;12.704;2024-02-26T07:06:32;11.20;;;10.80;;
10571;SDS011;5334;48.928;12.704;2024-02-26T07:08:58;10.53;;;10.13;;
10571;SDS011;5334;48.928;12.704;2024-02-26T07:11:23;11.03;;;10.63;;
10571;SDS011;5334;48.928;12.704;2024-02-26T07:13:49;12.40;;;11.90;;
10571;SDS011;5334;48.928;12.704;2024-02-26T07:16:15;10.83;;;10.43;;
10571;SDS011;5334;48.928;12.704;2024-02-26T07:18:41;12.90;;;12.40;;
10571;SDS011;5334;48.928;12.704;2024-02-26T07:21:08;10.53;;;10.13;;
10571;SDS011;5334;48.928;12.704;2024-02-26T07:23:34;11.77;;;11.27;;
10571;SDS011;5334;48.928;12.704;2024-02-26T07:26:00;14.20;;;13.60;;
10571;SDS011;5334;48.928;12.704;2024-02-26T07:28:25;12.07;;;11.57;;
10571;SDS011;5334;48.928;12.704;2024-02-26T07:30:51;10.37;;;9.97;;
10571;SDS011;5334;48.928;12.704;2024-02-26T07:33:17;11.67;;;11.20;;
10571;SDS011;5334;48.928;12.704;2024-02-26T07:35:43;19.07;;;18.27;;
10571;SDS011;5334;48.928;12.704;2024-02-26T07:38:08;11.67;;;11.17;;
10571;SDS011;5334;48.928;12.704;2024-02-26T07:40:34;12.43;;;11.93;;
10571;SDS011;5334;48.928;12.704;2024-02-26T07:43:00;14.03;;;13.43;;
10571;SDS011;5334;48.928;12.704;2024-02-26T07:45:25;16.37;;;15.67;;
10571;SDS011;5334;48.928;12.704;2024-02-26T07:47:51;16.67;;;15.97;;
10571;SDS011;5334;48.928;12.704;2024-02-26T07:50:17;17.23;;;16.53;;
10571;SDS011;5334;48.928;12.704;2024-02-26T07:52:43;19.23;;;18.43;;
10571;SDS011;5334;48.928;12.704;2024-02-26T07:55:09;23.13;;;22.13;;
10571;SDS011;5334;48.928;12.704;2024-02-26T07:57:35;17.33;;;16.63;;
10571;SDS011;5334;48.928;12.704;2024-02-26T08:00:02;12.83;;;12.33;;
10571;SDS011;5334;48.928;12.704;2024-02-26T08:02:28;19.57;;;18.77;;
10571;SDS011;5334;48.928;12.704;2024-02-26T08:04:54;14.50;;;13.90;;
10571;SDS011;5334;48.928;12.704;2024-02-26T08:07:19;16.80;;;16.10;;
10571;SDS011;5334;48.928;12.704;2024-02-26T08:09:46;14.63;;;14.03;;
10571;SDS011;5334;48.928;12.704;2024-02-26T08:12:12;16.40;;;15.70;;
10571;SDS011;5334;48.928;12.704;2024-02-26T08:14:38;20.97;;;20.07;;
10571;SDS011;5334;48.928;12.704;2024-02-26T08:17:03;17.70;;;17.00;;
10571;SDS011;5334;48.928;12.704;2024-02-26T08:19:29;18.50;;;17.70;;
10571;SDS011;5334;48.928;12.704;2024-02-26T08:21:55;21.37;;;20.47;;
10571;SDS011;5334;48.928;12.704;2024-02-26T08:24:20;21.47;;;20.57;;
10571;SDS011;5334;48.928;12.704;2024-02-26T08:26:46;55.23;;;51.80;;
10571;SDS011;5334;48.928;12.704;2024-02-26T08:29:12;28.17;;;26.97;;
10571;SDS011;5334;48.928;12.704;2024-02-26T08:31:38;21.37;;;20.47;;
10571;SDS011;5334;48.928;12.704;2024-02-26T08:34:03;26.43;;;25.33;;
10571;SDS011;5334;48.928;12.704;2024-02-26T08:36:33;24.83;;;23.83;;
10571;SDS011;5334;48.928;12.704;2024-02-26T08:38:59;21.47;;;20.57;;
10571;SDS011;5334;48.928;12.704;2024-02-26T08:41:25;21.50;;;20.60;;
10571;SDS011;5334;48.928;12.704;2024-02-26T08:43:51;34.27;;;32.17;;
10571;SDS011;5334;48.928;12.704;2024-02-26T08:46:16;19.00;;;18.20;;
10571;SDS011;5334;48.928;12.704;2024-02-26T08:48:42;19.07;;;18.27;;
10571;SDS011;5334;48.928;12.704;2024-02-26T08:51:08;18.00;;;17.27;;
10571;SDS011;5334;48.928;12.704;2024-02-26T08:53:35;19.77;;;18.97;;
10571;SDS011;5334;48.928;12.704;2024-02-26T08:56:01;18.93;;;18.13;;
10571;SDS011;5334;48.928;12.704;2024-02-26T08:58:27;21.80;;;20.90;;
10571;SDS011;5334;48.928;12.704;2024-02-26T09:00:53;20.77;;;19.90;;
10571;SDS011;5334;48.928;12.704;2024-02-26T09:03:19;23.90;;;22.90;;
10571;SDS011;5334;48.928;12.704;2024-02-26T09:05:45;25.03;;;24.00;;
10571;SDS011;5334;48.928;12.704;2024-02-26T09:08:10;25.10;;;24.03;;
10571;SDS011;5334;48.928;12.704;2024-02-26T09:10:36;19.70;;;18.90;;
10571;SDS011;5334;48.928;12.704;2024-02-26T09:13:02;21.90;;;21.00;;
10571;SDS011;5334;48.928;12.704;2024-02-26T09:15:28;21.10;;;20.20;;
10571;SDS011;5334;48.928;12.704;2024-02-26T09:17:54;21.13;;;20.23;;
10571;SDS011;5334;48.928;12.704;2024-02-26T09:20:19;25.27;;;24.20;;
10571;SDS011;5334;48.928;12.704;2024-02-26T09:22:46;26.30;;;25.20;;
10571;SDS011;5334;48.928;12.704;2024-02-26T09:25:13;21.77;;;20.87;;
10571;SDS011;5334;48.928;12.704;2024-02-26T09:27:41;19.90;;;19.10;;
10571;SDS011;5334;48.928;12.704;2024-02-26T09:30:08;28.03;;;26.83;;
10571;SDS011;5334;48.928;12.704;2024-02-26T09:32:38;26.87;;;25.77;;
10571;SDS011;5334;48.928;12.704;2024-02-26T09:35:04;112.83;;;74.30;;
10571;SDS011;5334;48.928;12.704;2024-02-26T09:37:31;23.50;;;22.50;;
10571;SDS011;5334;48.928;12.704;2024-02-26T09:39:58;21.70;;;20.80;;
10571;SDS011;5334;48.928;12.704;2024-02-26T09:42:27;27.37;;;26.20;;
10571;SDS011;5334;48.928;12.704;2024-02-26T09:44:53;26.97;;;25.87;;
10571;SDS011;5334;48.928;12.704;2024-02-26T09:47:25;30.13;;;28.83;;
10571;SDS011;5334;48.928;12.704;2024-02-26T09:49:54;28.27;;;27.07;;
10571;SDS011;5334;48.928;12.704;2024-02-26T09:52:23;23.93;;;22.93;;
10571;SDS011;5334;48.928;12.704;2024-02-26T09:54:50;27.57;;;26.40;;
10571;SDS011;5334;48.928;12.704;2024-02-26T09:57:16;24.10;;;23.10;;
10571;SDS011;5334;48.928;12.704;2024-02-26T09:59:43;25.43;;;24.33;;
10571;SDS011;5334;48.928;12.704;2024-02-26T10:02:11;22.30;;;21.40;;
10571;SDS011;5334;48.928;12.704;2024-02-26T10:04:38;27.20;;;26.07;;
10571;SDS011;5334;48.928;12.704;2024-02-26T10:07:06;26.27;;;25.17;;
10571;SDS011;5334;48.928;12.704;2024-02-26T10:09:35;22.60;;;21.67;;
10571;SDS011;5334;48.928;12.704;2024-02-26T10:12:01;27.37;;;26.23;;
10571;SDS011;5334;48.928;12.704;2024-02-26T10:14:28;22.93;;;21.97;;
10571;SDS011;5334;48.928;12.704;2024-02-26T10:16:54;21.17;;;20.27;;
10571;SDS011;5334;48.928;12.704;2024-02-26T10:19:26;22.83;;;21.87;;
10571;SDS011;5334;48.928;12.704;2024-02-26T10:21:57;22.67;;;21.73;;
10571;SDS011;5334;48.928;12.704;2024-02-26T10:24:24;22.30;;;21.40;;
10571;SDS011;5334;48.928;12.704;2024-02-26T10:26:50;18.70;;;17.90;;
10571;SDS011;5334;48.928;12.704;2024-02-26T10:29:18;22.27;;;21.37;;
10571;SDS011;5334;48.928;12.704;2024-02-26T10:31:44;27.70;;;26.50;;
10571;SDS011;5334;48.928;12.704;2024-02-26T10:34:10;26.60;;;25.50;;
10571;SDS011;5334;48.928;12.704;2024-02-26T10:36:36;26.67;;;25.57;;
10571;SDS011;5334;48.928;12.704;2024-02-26T10:39:05;24.30;;;23.30;;
10571;SDS011;5334;48.928;12.704;2024-02-26T10:41:32;24.77;;;23.77;;
10571;SDS011;5334;48.928;12.704;2024-02-26T10:43:58;24.40;;;23.40;;
10571;SDS011;5334;48.928;12.704;2024-02-26T10:46:28;24.83;;;23.83;;
10571;SDS011;5334;48.928;12.704;2024-02-26T10:48:53;23.90;;;22.90;;
10571;SDS011;5334;48.928;12.704;2024-02-26T10:51:30;24.57;;;23.53;;
10571;SDS011;5334;48.928;12.704;2024-02-26T10:53:57;24.03;;;23.03;;
10571;SDS011;5334;48.928;12.704;2024-02-26T10:56:26;27.17;;;26.03;;
10571;SDS011;5334;48.928;12.704;2024-02-26T10:58:55;23.33;;;22.33;;
10571;SDS011;5334;48.928;12.704;2024-02-26T11:01:23;30.00;;;28.73;;
10571;SDS011;5334;48.928;12.704;2024-02-26T11:03:50;31.57;;;30.23;;
10571;SDS011;5334;48.928;12.704;2024-02-26T11:06:21;26.63;;;25.53;;
10571;SDS011;5334;48.928;12.704;2024-02-26T11:08:50;23.17;;;22.17;;
10571;SDS011;5334;48.928;12.704;2024-02-26T11:11:16;20.03;;;19.23;;
10571;SDS011;5334;48.928;12.704;2024-02-26T11:13:43;25.27;;;24.20;;
10571;SDS011;5334;48.928;12.704;2024-02-26T11:16:20;20.30;;;19.47;;
10571;SDS011;5334;48.928;12.704;2024-02-26T11:18:47;23.93;;;22.93;;
10571;SDS011;5334;48.928;12.704;2024-02-26T11:21:17;19.33;;;18.53;;
10571;SDS011;5334;48.928;12.704;2024-02-26T11:23:52;18.67;;;17.87;;
10571;SDS011;5334;48.928;12.704;2024-02-26T11:26:19;18.17;;;17.43;;
10571;SDS011;5334;48.928;12.704;2024-02-26T11:28:46;21.00;;;20.10;;
10571;SDS011;5334;48.928;12.704;2024-02-26T11:31:13;21.90;;;21.00;;
10571;SDS011;5334;48.928;12.704;2024-02-26T11:33:39;17.53;;;16.83;;
10571;SDS011;5334;48.928;12.704;2024-02-26T11:36:11;17.37;;;16.67;;
10571;SDS011;5334;48.928;12.704;2024-02-26T11:38:39;21.13;;;20.23;;
10571;SDS011;5334;48.928;12.704;2024-02-26T11:41:05;19.07;;;18.27;;
10571;SDS011;5334;48.928;12.704;2024-02-26T11:46:31;42.80;;;39.97;;
10571;SDS011;5334;48.928;12.704;2024-02-26T11:49:01;29.97;;;28.53;;
10571;SDS011;5334;48.928;12.704;2024-02-26T11:51:50;20.80;;;19.90;;
10571;SDS011;5334;48.928;12.704;2024-02-26T11:57:25;26.47;;;24.63;;
10571;SDS011;5334;48.928;12.704;2024-02-26T12:02:39;22.67;;;21.73;;
10571;SDS011;5334;48.928;12.704;2024-02-26T12:05:19;18.50;;;17.70;;
10571;SDS011;5334;48.928;12.704;2024-02-26T12:07:55;38.23;;;36.23;;
10571;SDS011;5334;48.928;12.704;2024-02-26T12:10:32;21.27;;;20.37;;
10571;SDS011;5334;48.928;12.704;2024-02-26T12:13:00;18.97;;;18.17;;
10571;SDS011;5334;48.928;12.704;2024-02-26T12:15:36;22.70;;;21.77;;
10571;SDS011;5334;48.928;12.704;2024-02-26T12:18:04;14.60;;;14.00;;
10571;SDS011;5334;48.928;12.704;2024-02-26T12:20:32;26.67;;;24.93;;
10571;SDS011;5334;48.928;12.704;2024-02-26T12:23:00;19.57;;;18.77;;
10571;SDS011;5334;48.928;12.704;2024-02-26T12:25:28;20.37;;;19.53;;
10571;SDS011;5334;48.928;12.704;2024-02-26T12:27:54;16.67;;;15.97;;
10571;SDS011;5334;48.928;12.704;2024-02-26T12:30:21;16.30;;;15.60;;
10571;SDS011;5334;48.928;12.704;2024-02-26T12:32:47;17.73;;;17.03;;
10571;SDS011;5334;48.928;12.704;2024-02-26T12:35:14;18.30;;;17.53;;
10571;SDS011;5334;48.928;12.704;2024-02-26T12:37:41;16.40;;;15.70;;
10571;SDS011;5334;48.928;12.704;2024-02-26T12:40:08;17.17;;;16.47;;
10571;SDS011;5334;48.928;12.704;2024-02-26T12:42:35;16.63;;;15.93;;
10571;SDS011;5334;48.928;12.704;2024-02-26T12:45:05;20.43;;;19.60;;
10571;SDS011;5334;48.928;12.704;2024-02-26T12:47:39;17.27;;;16.57;;
10571;SDS011;5334;48.928;12.704;2024-02-26T12:50:06;17.77;;;17.07;;
10571;SDS011;5334;48.928;12.704;2024-02-26T12:52:33;16.63;;;15.93;;
10571;SDS011;5334;48.928;12.704;2024-02-26T12:55:01;18.63;;;17.83;;
10571;SDS011;5334;48.928;12.704;2024-02-26T12:57:31;17.37;;;16.67;;
10571;SDS011;5334;48.928;12.704;2024-02-26T12:59:58;18.60;;;17.80;;
10571;SDS011;5334;48.928;12.704;2024-02-26T13:02:25;19.33;;;18.53;;
10571;SDS011;5334;48.928;12.704;2024-02-26T13:04:51;23.67;;;22.67;;
10571;SDS011;5334;48.928;12.704;2024-02-26T13:07:18;20.50;;;19.67;;
10571;SDS011;5334;48.928;12.704;2024-02-26T13:09:44;77.37;;;70.80;;
10571;SDS011;5334;48.928;12.704;2024-02-26T13:12:10;29.27;;;28.03;;
10571;SDS011;5334;48.928;12.704;2024-02-26T13:14:37;23.10;;;22.13;;
10571;SDS011;5334;48.928;12.704;2024-02-26T13:17:02;31.07;;;29.77;;
10571;SDS011;5334;48.928;12.704;2024-02-26T13:19:28;24.40;;;23.40;;
10571;SDS011;5334;48.928;12.704;2024-02-26T13:21:54;26.07;;;24.97;;
10571;SDS011;5334;48.928;12.704;2024-02-26T13:24:20;25.93;;;24.83;;
10571;SDS011;5334;48.928;12.704;2024-02-26T13:26:47;29.30;;;28.07;;
10571;SDS011;5334;48.928;12.704;2024-02-26T13:29:19;23.03;;;22.03;;
10571;SDS011;5334;48.928;12.704;2024-02-26T13:31:46;17.73;;;17.03;;
10571;SDS011;5334;48.928;12.704;2024-02-26T13:34:22;23.03;;;22.07;;
10571;SDS011;5334;48.928;12.704;2024-02-26T13:36:51;19.30;;;18.50;;
10571;SDS011;5334;48.928;12.704;2024-02-26T13:39:21;25.70;;;24.50;;
10571;SDS011;5334;48.928;12.704;2024-02-26T13:41:48;20.50;;;19.63;;
10571;SDS011;5334;48.928;12.704;2024-02-26T13:44:14;22.47;;;21.57;;
10571;SDS011;5334;48.928;12.704;2024-02-26T13:46:40;22.37;;;21.47;;
10571;SDS011;5334;48.928;12.704;2024-02-26T13:49:07;29.13;;;27.93;;
10571;SDS011;5334;48.928;12.704;2024-02-26T13:51:34;23.17;;;22.20;;
10571;SDS011;5334;48.928;12.704;2024-02-26T13:54:01;23.10;;;22.10;;
10571;SDS011;5334;48.928;12.704;2024-02-26T13:56:27;22.30;;;21.37;;
10571;SDS011;5334;48.928;12.704;2024-02-26T13:58:53;23.73;;;22.73;;
10571;SDS011;5334;48.928;12.704;2024-02-26T14:01:19;19.33;;;18.53;;
10571;SDS011;5334;48.928;12.704;2024-02-26T14:03:44;23.70;;;22.70;;
10571;SDS011;5334;48.928;12.704;2024-02-26T14:06:10;23.27;;;22.27;;
10571;SDS011;5334;48.928;12.704;2024-02-26T14:08:36;20.47;;;19.67;;
10571;SDS011;5334;48.928;12.704;2024-02-26T14:11:03;19.20;;;18.40;;
10571;SDS011;5334;48.928;12.704;2024-02-26T14:13:28;20.27;;;19.47;;
10571;SDS011;5334;48.928;12.704;2024-02-26T14:15:54;18.80;;;18.00;;
10571;SDS011;5334;48.928;12.704;2024-02-26T14:18:21;19.33;;;18.53;;
10571;SDS011;5334;48.928;12.704;2024-02-26T14:20:46;19.57;;;18.77;;
10571;SDS011;5334;48.928;12.704;2024-02-26T14:23:12;19.23;;;18.43;;
10571;SDS011;5334;48.928;12.704;2024-02-26T14:25:38;20.17;;;19.33;;
10571;SDS011;5334;48.928;12.704;2024-02-26T14:28:03;19.27;;;18.47;;
10571;SDS011;5334;48.928;12.704;2024-02-26T14:30:29;19.50;;;18.70;;
10571;SDS011;5334;48.928;12.704;2024-02-26T14:32:55;18.90;;;18.10;;
10571;SDS011;5334;48.928;12.704;2024-02-26T14:35:21;19.73;;;18.93;;